createdAt,value
2018-02-03T00:01:38.423Z,4.67
2018-02-03T00:04:06.024Z,4.33
2018-02-03T00:06:33.611Z,3.73
2018-02-03T00:09:01.240Z,4.53
2018-02-03T00:11:28.817Z,3.80
2018-02-03T00:13:57.159Z,4.53
2018-02-03T00:16:24.710Z,4.10
2018-02-03T00:18:52.304Z,4.27
2018-02-03T00:21:20.658Z,4.30
2018-02-03T00:23:48.219Z,5.00
2018-02-03T00:26:15.809Z,5.00
2018-02-03T00:28:44.153Z,4.60
2018-02-03T00:31:11.712Z,4.73
2018-02-03T00:33:39.289Z,4.37
2018-02-03T00:36:07.618Z,4.20
2018-02-03T00:38:35.174Z,4.27
2018-02-03T00:41:02.885Z,4.67
2018-02-03T00:43:31.259Z,4.47
2018-02-03T00:45:59.585Z,5.17
2018-02-03T00:48:27.163Z,4.10
2018-02-03T00:50:54.723Z,4.13
2018-02-03T00:53:22.304Z,4.10
2018-02-03T00:55:49.976Z,4.50
2018-02-03T00:58:18.318Z,4.13
2018-02-03T01:00:45.862Z,4.20
2018-02-03T01:03:13.415Z,15.97
2018-02-03T01:05:41.021Z,4.13
2018-02-03T01:08:09.355Z,4.40
2018-02-03T01:10:36.946Z,4.20
2018-02-03T01:13:04.539Z,5.00
2018-02-03T01:15:32.154Z,4.33
2018-02-03T01:17:59.821Z,5.20
2018-02-03T01:20:27.384Z,4.30
2018-02-03T01:22:55.038Z,4.40
2018-02-03T01:25:22.596Z,4.20
2018-02-03T01:27:50.167Z,4.33
2018-02-03T01:30:18.565Z,4.30
2018-02-03T01:32:46.095Z,4.70
2018-02-03T01:35:13.757Z,4.37
2018-02-03T01:37:41.422Z,4.23
2018-02-03T01:40:08.999Z,4.70
2018-02-03T01:42:37.345Z,5.20
2018-02-03T01:45:04.898Z,4.23
2018-02-03T01:47:44.351Z,4.70
2018-02-03T01:50:11.960Z,4.37
2018-02-03T01:52:39.532Z,4.50
2018-02-03T01:55:07.163Z,4.70
2018-02-03T01:57:34.741Z,4.30
2018-02-03T02:00:02.302Z,4.63
2018-02-03T02:02:29.886Z,4.67
2018-02-03T02:04:57.440Z,4.50
2018-02-03T02:07:25.158Z,4.00
2018-02-03T02:09:53.487Z,4.30
2018-02-03T02:12:21.041Z,4.20
2018-02-03T02:14:48.589Z,3.83
2018-02-03T02:17:16.162Z,4.70
2018-02-03T02:19:43.729Z,4.67
2018-02-03T02:22:11.388Z,4.00
2018-02-03T02:24:38.977Z,4.23
2018-02-03T02:27:06.563Z,4.43
2018-02-03T02:29:34.123Z,5.43
2018-02-03T02:32:01.678Z,3.93
2018-02-03T02:34:29.246Z,4.37
2018-02-03T02:36:56.809Z,4.00
2018-02-03T02:39:24.416Z,4.13
2018-02-03T02:41:52.746Z,4.80
2018-02-03T02:44:20.334Z,4.57
2018-02-03T02:46:48.700Z,4.60
2018-02-03T02:49:16.256Z,4.20
2018-02-03T02:51:43.835Z,4.70
2018-02-03T02:54:12.203Z,4.80
2018-02-03T02:56:40.540Z,4.53
2018-02-03T02:59:08.136Z,4.67
2018-02-03T03:01:35.772Z,4.80
2018-02-03T03:04:03.360Z,4.37
2018-02-03T03:06:31.676Z,4.63
2018-02-03T03:08:59.390Z,4.20
2018-02-03T03:11:27.048Z,4.23
2018-02-03T03:13:54.607Z,4.73
2018-02-03T03:16:22.184Z,5.30
2018-02-03T03:18:50.497Z,4.80
2018-02-03T03:21:18.207Z,4.20
2018-02-03T03:23:46.538Z,3.90
2018-02-03T03:26:14.192Z,4.40
2018-02-03T03:28:41.762Z,4.87
2018-02-03T03:31:09.311Z,4.77
2018-02-03T03:33:36.922Z,4.70
2018-02-03T03:36:05.263Z,4.73
2018-02-03T03:38:32.841Z,4.67
2018-02-03T03:41:00.395Z,4.20
2018-02-03T03:43:27.951Z,4.27
2018-02-03T03:45:55.606Z,4.80
2018-02-03T03:48:23.178Z,4.90
2018-02-03T03:50:50.830Z,4.30
2018-02-03T03:53:18.378Z,4.80
2018-02-03T03:55:45.965Z,5.00
2018-02-03T03:58:14.309Z,4.40
2018-02-03T04:00:41.873Z,4.47
2018-02-03T04:03:09.439Z,4.60
2018-02-03T04:05:36.997Z,4.87
2018-02-03T04:08:04.575Z,5.40
2018-02-03T04:10:32.906Z,5.07
2018-02-03T04:13:00.512Z,4.40
2018-02-03T04:15:28.103Z,4.53
2018-02-03T04:17:55.683Z,4.47
2018-02-03T04:20:23.245Z,5.13
2018-02-03T04:22:50.812Z,4.83
2018-02-03T04:25:18.396Z,6.37
2018-02-03T04:27:46.747Z,6.17
2018-02-03T04:30:14.301Z,5.03
2018-02-03T04:32:41.866Z,6.03
2018-02-03T04:35:09.445Z,6.70
2018-02-03T04:37:36.998Z,6.20
2018-02-03T04:40:04.645Z,6.70
2018-02-03T04:42:32.230Z,6.50
2018-02-03T04:45:00.587Z,6.63
2018-02-03T04:47:28.145Z,6.10
2018-02-03T04:49:55.722Z,7.53
2018-02-03T04:52:24.039Z,6.27
2018-02-03T04:54:51.625Z,7.07
2018-02-03T04:57:19.193Z,7.40
2018-02-03T04:59:46.816Z,5.30
2018-02-03T05:02:14.448Z,5.80
2018-02-03T05:04:42.761Z,5.23
2018-02-03T05:07:10.323Z,6.00
2018-02-03T05:09:37.892Z,5.40
2018-02-03T05:12:05.483Z,5.43
2018-02-03T05:14:33.875Z,5.20
2018-02-03T05:17:02.203Z,5.83
2018-02-03T05:19:29.793Z,5.63
2018-02-03T05:21:58.142Z,6.00
2018-02-03T05:24:25.689Z,5.70
2018-02-03T05:26:53.277Z,6.07
2018-02-03T05:29:20.874Z,6.40
2018-02-03T05:31:48.493Z,5.93
2018-02-03T05:34:16.252Z,5.50
2018-02-03T05:36:43.813Z,6.90
2018-02-03T05:39:11.375Z,7.00
2018-02-03T05:41:39.035Z,6.30
2018-02-03T05:44:06.593Z,5.30
2018-02-03T05:46:34.182Z,4.97
2018-02-03T05:49:01.733Z,5.33
2018-02-03T05:51:30.056Z,6.13
2018-02-03T05:53:57.621Z,5.70
2018-02-03T05:56:25.169Z,5.60
2018-02-03T05:58:52.738Z,4.70
2018-02-03T06:01:20.291Z,5.57
2018-02-03T06:03:48.646Z,5.20
2018-02-03T06:06:16.227Z,5.50
2018-02-03T06:08:44.795Z,5.70
2018-02-03T06:11:12.391Z,5.93
2018-02-03T06:13:39.951Z,5.97
2018-02-03T06:16:07.593Z,5.53
2018-02-03T06:18:35.143Z,5.60
2018-02-03T06:21:02.694Z,6.83
2018-02-03T06:23:30.308Z,6.63
2018-02-03T06:25:57.888Z,5.93
2018-02-03T06:28:25.477Z,12.87
2018-02-03T06:30:53.043Z,10.20
2018-02-03T06:33:20.637Z,12.00
2018-02-03T06:35:48.990Z,17.77
2018-02-03T06:38:16.561Z,14.40
2018-02-03T06:40:44.904Z,22.63
2018-02-03T06:43:12.454Z,9.93
2018-02-03T06:45:40.047Z,10.07
2018-02-03T06:48:08.392Z,14.17
2018-02-03T06:50:35.956Z,11.63
2018-02-03T06:53:03.541Z,10.60
2018-02-03T06:55:31.894Z,16.07
2018-02-03T06:57:59.525Z,16.67
2018-02-03T07:00:27.081Z,11.40
2018-02-03T07:02:54.672Z,17.00
2018-02-03T07:05:22.352Z,12.83
2018-02-03T07:07:49.936Z,9.10
2018-02-03T07:10:17.526Z,8.47
2018-02-03T07:12:45.078Z,9.13
2018-02-03T07:15:12.668Z,15.23
2018-02-03T07:17:40.243Z,8.00
2018-02-03T07:20:08.639Z,8.47
2018-02-03T07:22:36.279Z,8.47
2018-02-03T07:25:03.842Z,8.43
2018-02-03T07:27:32.169Z,8.23
2018-02-03T07:29:59.774Z,8.00
2018-02-03T07:32:27.526Z,8.40
2018-02-03T07:34:55.093Z,9.47
2018-02-03T07:37:22.670Z,8.80
2018-02-03T07:39:51.021Z,9.00
2018-02-03T07:42:18.664Z,8.63
2018-02-03T07:44:46.252Z,9.90
2018-02-03T07:47:14.603Z,8.60
2018-02-03T07:49:42.283Z,9.40
2018-02-03T07:52:09.854Z,10.20
2018-02-03T07:54:38.192Z,8.43
2018-02-03T07:57:05.775Z,10.00
2018-02-03T07:59:33.354Z,10.40
2018-02-03T08:02:00.921Z,9.70
2018-02-03T08:04:28.610Z,9.40
2018-02-03T08:06:56.161Z,11.80
2018-02-03T08:09:23.821Z,9.80
2018-02-03T08:11:51.408Z,10.20
2018-02-03T08:14:18.977Z,13.20
2018-02-03T08:16:46.596Z,10.20
2018-02-03T08:19:14.175Z,9.27
2018-02-03T08:21:41.766Z,10.37
2018-02-03T08:24:10.136Z,9.63
2018-02-03T08:26:37.718Z,10.90
2018-02-03T08:29:06.178Z,10.80
2018-02-03T08:31:33.760Z,10.70
2018-02-03T08:34:02.202Z,11.70
2018-02-03T08:36:29.779Z,12.30
2018-02-03T08:38:58.282Z,11.30
2018-02-03T08:41:25.846Z,11.43
2018-02-03T08:43:53.422Z,10.80
2018-02-03T08:46:20.996Z,11.57
2018-02-03T08:48:48.684Z,12.30
2018-02-03T08:51:16.280Z,11.93
2018-02-03T08:53:43.866Z,12.77
2018-02-03T08:56:11.444Z,12.33
2018-02-03T08:58:39.832Z,12.30
2018-02-03T09:01:08.189Z,11.60
2018-02-03T09:03:35.842Z,11.57
2018-02-03T09:06:03.453Z,12.23
2018-02-03T09:08:31.107Z,12.13
2018-02-03T09:10:59.459Z,11.90
2018-02-03T09:13:27.084Z,13.40
2018-02-03T09:15:54.662Z,12.00
2018-02-03T09:18:22.238Z,11.67
2018-02-03T09:20:49.810Z,12.40
2018-02-03T09:23:18.185Z,12.70
2018-02-03T09:25:45.802Z,12.13
2018-02-03T09:28:13.378Z,11.53
2018-02-03T09:30:41.053Z,10.73
2018-02-03T09:33:10.139Z,11.33
2018-02-03T09:35:37.706Z,10.50
2018-02-03T09:38:05.268Z,9.33
2018-02-03T09:40:32.904Z,10.50
2018-02-03T09:43:00.479Z,9.70
2018-02-03T09:45:28.050Z,10.73
2018-02-03T09:47:55.612Z,9.07
2018-02-03T09:50:23.996Z,9.70
2018-02-03T09:52:51.728Z,10.57
2018-02-03T09:55:19.752Z,9.40
2018-02-03T09:57:47.372Z,10.20
2018-02-03T10:00:14.945Z,9.07
2018-02-03T10:02:43.271Z,8.87
2018-02-03T10:05:10.878Z,9.50
2018-02-03T10:07:39.240Z,8.90
2018-02-03T10:10:06.790Z,8.87
2018-02-03T10:12:34.363Z,9.87
2018-02-03T10:15:02.710Z,9.90
2018-02-03T10:17:30.275Z,9.10
2018-02-03T10:19:57.847Z,9.67
2018-02-03T10:22:25.399Z,9.10
2018-02-03T10:24:52.981Z,7.97
2018-02-03T10:27:21.482Z,8.53
2018-02-03T10:29:49.108Z,8.27
2018-02-03T10:32:16.719Z,9.20
2018-02-03T10:34:44.327Z,7.60
2018-02-03T10:37:11.995Z,9.13
2018-02-03T10:39:40.320Z,7.63
2018-02-03T10:42:07.885Z,8.30
2018-02-03T10:44:35.564Z,8.40
2018-02-03T10:47:03.148Z,8.43
2018-02-03T10:49:31.466Z,7.40
2018-02-03T10:51:59.070Z,6.90
2018-02-03T10:54:26.674Z,7.60
2018-02-03T10:56:54.262Z,7.77
2018-02-03T10:59:21.841Z,6.47
2018-02-03T11:01:50.259Z,8.47
2018-02-03T11:04:17.895Z,7.17
2018-02-03T11:06:46.260Z,7.33
2018-02-03T11:09:13.833Z,7.40
2018-02-03T11:11:42.183Z,8.20
2018-02-03T11:14:09.762Z,6.93
2018-02-03T11:16:38.105Z,8.10
2018-02-03T11:19:05.690Z,8.30
2018-02-03T11:21:33.344Z,7.27
2018-02-03T11:24:01.008Z,8.13
2018-02-03T11:26:28.686Z,9.60
2018-02-03T11:28:57.026Z,7.13
2018-02-03T11:31:24.586Z,7.40
2018-02-03T11:33:52.153Z,9.00
2018-02-03T11:36:19.706Z,7.10
2018-02-03T11:38:47.290Z,8.77
2018-02-03T11:41:15.658Z,8.77
2018-02-03T11:43:43.217Z,7.93
2018-02-03T11:46:10.825Z,8.10
2018-02-03T11:48:38.436Z,8.73
2018-02-03T11:51:06.802Z,8.23
2018-02-03T11:53:34.418Z,9.07
2018-02-03T11:56:02.052Z,8.43
2018-02-03T11:58:30.404Z,8.33
2018-02-03T12:00:58.745Z,8.40
2018-02-03T12:03:26.314Z,7.50
2018-02-03T12:05:53.936Z,6.87
2018-02-03T12:08:21.486Z,7.90
2018-02-03T12:10:49.082Z,7.63
2018-02-03T12:13:16.659Z,8.00
2018-02-03T12:15:44.339Z,7.70
2018-02-03T12:18:12.711Z,7.97
2018-02-03T12:20:40.312Z,7.77
2018-02-03T12:23:07.883Z,6.97
2018-02-03T12:25:35.469Z,7.33
2018-02-03T12:28:03.129Z,7.60
2018-02-03T12:30:31.618Z,7.40
2018-02-03T12:32:59.183Z,6.97
2018-02-03T12:35:26.766Z,8.87
2018-02-03T12:37:55.112Z,7.80
2018-02-03T12:40:22.699Z,7.30
2018-02-03T12:42:51.066Z,8.20
2018-02-03T12:45:19.430Z,7.70
2018-02-03T12:47:46.984Z,7.70
2018-02-03T12:50:14.652Z,6.77
2018-02-03T12:52:43.011Z,4.90
2018-02-03T12:55:10.677Z,10.90
2018-02-03T12:57:38.261Z,5.63
2018-02-03T13:00:06.623Z,5.30
2018-02-03T13:02:34.974Z,5.77
2018-02-03T13:05:02.534Z,5.90
2018-02-03T13:07:30.091Z,5.87
2018-02-03T13:09:57.679Z,5.83
2018-02-03T13:12:26.038Z,6.40
2018-02-03T13:14:53.679Z,7.23
2018-02-03T13:17:21.278Z,5.57
2018-02-03T13:19:49.717Z,6.17
2018-02-03T13:22:17.280Z,6.10
2018-02-03T13:24:44.892Z,7.30
2018-02-03T13:27:12.441Z,7.67
2018-02-03T13:29:40.779Z,7.07
2018-02-03T13:32:08.366Z,7.80
2018-02-03T13:34:36.784Z,7.40
2018-02-03T13:37:04.356Z,7.33
2018-02-03T13:39:31.987Z,7.07
2018-02-03T13:41:59.593Z,7.40
2018-02-03T13:44:27.159Z,7.90
2018-02-03T13:46:54.747Z,6.83
2018-02-03T13:49:23.094Z,6.77
2018-02-03T13:51:51.424Z,6.73
2018-02-03T13:54:19.139Z,6.30
2018-02-03T13:56:46.806Z,7.00
2018-02-03T13:59:15.134Z,6.90
2018-02-03T14:01:42.799Z,5.70
2018-02-03T14:04:10.467Z,6.63
2018-02-03T14:06:38.051Z,5.90
2018-02-03T14:09:05.639Z,12.37
2018-02-03T14:11:33.295Z,6.03
2018-02-03T14:14:00.886Z,6.43
2018-02-03T14:16:28.548Z,6.97
2018-02-03T14:18:56.184Z,9.00
2018-02-03T14:21:23.813Z,7.27
2018-02-03T14:27:00.563Z,6.10
2018-02-03T14:29:28.157Z,7.60
2018-02-03T14:31:55.822Z,6.60
2018-02-03T14:34:23.391Z,7.37
2018-02-03T14:36:51.726Z,7.23
2018-02-03T14:39:19.295Z,6.10
2018-02-03T14:41:46.868Z,7.40
2018-02-03T14:44:14.430Z,6.90
2018-02-03T14:46:42.008Z,7.27
2018-02-03T14:49:09.651Z,7.40
2018-02-03T14:51:38.223Z,6.87
2018-02-03T14:54:05.876Z,6.60
2018-02-03T14:56:35.854Z,6.73
2018-02-03T14:59:06.520Z,6.40
2018-02-03T15:01:34.760Z,6.00
2018-02-03T15:04:02.953Z,7.63
2018-02-03T15:06:32.952Z,7.23
2018-02-03T15:09:00.870Z,7.37
2018-02-03T15:11:29.106Z,8.10
2018-02-03T15:13:57.210Z,7.43
2018-02-03T15:16:25.956Z,7.23
2018-02-03T15:18:53.923Z,6.63
2018-02-03T15:21:22.501Z,6.67
2018-02-03T15:23:51.185Z,8.10
2018-02-03T15:26:20.567Z,7.60
2018-02-03T15:28:48.570Z,8.33
2018-02-03T15:31:16.601Z,7.60
2018-02-03T15:33:44.481Z,8.00
2018-02-03T15:36:12.562Z,8.30
2018-02-03T15:38:51.240Z,7.20
2018-02-03T15:41:19.578Z,7.37
2018-02-03T15:43:47.719Z,7.07
2018-02-03T15:46:15.468Z,7.17
2018-02-03T15:48:43.429Z,7.60
2018-02-03T15:51:11.397Z,6.87
2018-02-03T15:53:39.231Z,7.47
2018-02-03T15:56:17.980Z,7.03
2018-02-03T15:58:45.845Z,6.83
2018-02-03T16:01:13.863Z,7.50
2018-02-03T16:03:42.507Z,7.03
2018-02-03T16:06:11.226Z,6.80
2018-02-03T16:08:41.237Z,7.10
2018-02-03T16:11:09.566Z,8.00
2018-02-03T16:13:38.373Z,6.77
2018-02-03T16:16:07.079Z,7.53
2018-02-03T16:18:34.925Z,7.40
2018-02-03T16:21:03.505Z,6.80
2018-02-03T16:23:31.577Z,6.43
2018-02-03T16:25:59.566Z,6.90
2018-02-03T16:28:28.231Z,7.97
2018-02-03T16:30:56.168Z,7.07
2018-02-03T16:33:24.137Z,6.97
2018-02-03T16:35:52.225Z,7.20
2018-02-03T16:38:20.933Z,7.50
2018-02-03T16:40:49.907Z,7.40
2018-02-03T16:43:18.975Z,6.50
2018-02-03T16:45:46.981Z,7.07
2018-02-03T16:48:15.895Z,6.60
2018-02-03T16:50:44.956Z,7.90
2018-02-03T16:53:13.617Z,7.70
2018-02-03T16:55:41.524Z,7.20
2018-02-03T16:58:09.728Z,7.10
2018-02-03T17:00:37.450Z,7.07
2018-02-03T17:03:05.258Z,7.40
2018-02-03T17:05:33.285Z,7.20
2018-02-03T17:08:01.234Z,7.87
2018-02-03T17:10:29.927Z,9.13
2018-02-03T17:12:58.778Z,8.37
2018-02-03T17:15:27.087Z,5.80
2018-02-03T17:17:55.784Z,5.40
2018-02-03T17:20:24.255Z,4.30
2018-02-03T17:22:53.354Z,3.97
2018-02-03T17:25:22.208Z,3.60
2018-02-03T17:27:49.998Z,3.40
2018-02-03T17:30:18.203Z,3.90
2018-02-03T17:32:46.446Z,3.77
2018-02-03T17:35:14.394Z,4.10
2018-02-03T17:37:48.916Z,4.20
2018-02-03T17:40:18.677Z,4.57
2018-02-03T17:42:48.377Z,4.00
2018-02-03T17:45:22.084Z,3.83
2018-02-03T17:47:51.084Z,4.17
2018-02-03T17:50:19.177Z,3.80
2018-02-03T17:52:48.137Z,4.33
2018-02-03T17:58:21.650Z,5.87
2018-02-03T18:00:51.170Z,3.70
2018-02-03T18:03:19.892Z,3.73
2018-02-03T18:05:47.650Z,4.73
2018-02-03T18:08:15.287Z,4.63
2018-02-03T18:10:44.794Z,4.47
2018-02-03T18:13:12.892Z,4.80
2018-02-03T18:15:41.099Z,5.13
2018-02-03T18:18:10.072Z,5.83
2018-02-03T18:20:39.690Z,5.73
2018-02-03T18:23:08.012Z,5.87
2018-02-03T18:25:37.011Z,5.40
2018-02-03T18:28:04.722Z,8.13
2018-02-03T18:30:32.938Z,6.57
2018-02-03T18:33:01.115Z,7.57
2018-02-03T18:35:29.653Z,5.80
2018-02-03T18:37:57.722Z,7.30
2018-02-03T18:40:26.872Z,6.30
2018-02-03T18:43:04.592Z,6.00
2018-02-03T18:45:47.281Z,5.77
2018-02-03T18:48:15.655Z,4.93
2018-02-03T18:50:43.606Z,6.00
2018-02-03T18:53:12.186Z,6.43
2018-02-03T18:55:39.822Z,7.10
2018-02-03T18:58:08.171Z,5.87
2018-02-03T19:00:35.820Z,6.30
2018-02-03T19:03:03.739Z,7.37
2018-02-03T19:05:32.079Z,6.60
2018-02-03T19:07:59.700Z,6.43
2018-02-03T19:10:27.264Z,7.17
2018-02-03T19:12:54.877Z,7.70
2018-02-03T19:15:23.221Z,8.07
2018-02-03T19:17:50.888Z,8.70
2018-02-03T19:20:19.998Z,7.90
2018-02-03T19:22:47.715Z,7.30
2018-02-03T19:25:15.278Z,7.40
2018-02-03T19:27:42.837Z,6.90
2018-02-03T19:30:10.438Z,7.53
2018-02-03T19:32:38.007Z,7.40
2018-02-03T19:35:06.334Z,6.83
2018-02-03T19:37:33.931Z,6.17
2018-02-03T19:40:01.500Z,6.07
2018-02-03T19:42:29.840Z,6.43
2018-02-03T19:44:57.393Z,5.73
2018-02-03T19:47:24.970Z,6.20
2018-02-03T19:49:52.540Z,5.27
2018-02-03T19:52:20.199Z,5.80
2018-02-03T19:54:50.547Z,6.20
2018-02-03T19:57:19.617Z,6.83
2018-02-03T19:59:48.044Z,7.00
2018-02-03T20:02:16.019Z,8.30
2018-02-03T20:04:44.842Z,7.10
2018-02-03T20:07:13.929Z,9.13
2018-02-03T20:09:41.827Z,7.87
2018-02-03T20:12:09.751Z,10.40
2018-02-03T20:14:38.038Z,8.30
2018-02-03T20:17:06.681Z,13.80
2018-02-03T20:19:34.768Z,9.80
2018-02-03T20:22:03.954Z,8.40
2018-02-03T20:24:32.062Z,8.20
2018-02-03T20:27:00.131Z,7.80
2018-02-03T20:29:28.687Z,7.90
2018-02-03T20:31:57.657Z,8.10
2018-02-03T20:34:25.352Z,7.80
2018-02-03T20:36:53.225Z,9.23
2018-02-03T20:39:22.045Z,8.27
2018-02-03T20:41:49.738Z,7.00
2018-02-03T20:44:18.359Z,7.30
2018-02-03T20:46:46.290Z,8.50
2018-02-03T20:49:15.556Z,8.10
2018-02-03T20:51:43.972Z,7.60
2018-02-03T20:54:11.625Z,8.40
2018-02-03T20:56:39.299Z,6.80
2018-02-03T20:59:06.884Z,9.13
2018-02-03T21:01:34.440Z,7.70
2018-02-03T21:04:02.792Z,8.97
2018-02-03T21:06:30.376Z,8.57
2018-02-03T21:08:58.110Z,9.77
2018-02-03T21:11:25.705Z,9.53
2018-02-03T21:13:53.332Z,8.90
2018-02-03T21:16:20.900Z,9.37
2018-02-03T21:18:49.254Z,10.50
2018-02-03T21:21:16.877Z,8.70
2018-02-03T21:23:44.493Z,9.57
2018-02-03T21:26:12.827Z,10.90
2018-02-03T21:28:40.466Z,10.17
2018-02-03T21:31:08.032Z,9.33
2018-02-03T21:33:35.626Z,9.50
2018-02-03T21:36:03.209Z,9.53
2018-02-03T21:38:31.547Z,9.60
2018-02-03T21:40:59.131Z,9.50
2018-02-03T21:43:26.746Z,9.60
2018-02-03T21:45:54.308Z,10.23
2018-02-03T21:48:21.912Z,9.30
2018-02-03T21:50:50.253Z,9.20
2018-02-03T21:53:17.816Z,8.60
2018-02-03T21:55:45.489Z,10.50
2018-02-03T21:58:13.166Z,10.30
2018-02-03T22:00:41.513Z,10.13
2018-02-03T22:03:09.089Z,10.10
2018-02-03T22:05:36.681Z,10.27
2018-02-03T22:08:04.267Z,9.87
2018-02-03T22:10:31.862Z,11.43
2018-02-03T22:12:59.798Z,10.07
2018-02-03T22:15:37.382Z,10.47
2018-02-03T22:18:04.996Z,10.80
2018-02-03T22:20:33.387Z,9.83
2018-02-03T22:23:01.793Z,10.73
2018-02-03T22:25:29.358Z,10.40
2018-02-03T22:27:56.938Z,10.23
2018-02-03T22:30:24.631Z,10.37
2018-02-03T22:32:53.034Z,11.40
2018-02-03T22:35:20.593Z,10.13
2018-02-03T22:37:48.413Z,10.53
2018-02-03T22:40:16.755Z,9.53
2018-02-03T22:42:44.332Z,9.70
2018-02-03T22:45:12.024Z,10.40
2018-02-03T22:47:41.260Z,10.03
2018-02-03T22:50:09.507Z,10.50
2018-02-03T22:52:38.442Z,10.30
2018-02-03T22:55:07.033Z,9.70
2018-02-03T22:57:34.887Z,13.03
2018-02-03T23:00:02.847Z,11.80
2018-02-03T23:02:36.579Z,9.17
2018-02-03T23:05:05.470Z,12.63
2018-02-03T23:07:34.536Z,11.17
2018-02-03T23:10:02.277Z,9.80
2018-02-03T23:12:30.310Z,10.60
2018-02-03T23:14:58.378Z,11.30
2018-02-03T23:17:37.470Z,10.67
2018-02-03T23:20:05.569Z,11.40
2018-02-03T23:22:34.532Z,10.73
2018-02-03T23:25:13.342Z,11.93
2018-02-03T23:27:41.737Z,11.00
2018-02-03T23:30:10.761Z,10.93
2018-02-03T23:32:38.819Z,11.33
2018-02-03T23:35:17.596Z,11.60
2018-02-03T23:37:45.528Z,10.80
2018-02-03T23:40:13.368Z,11.70
2018-02-03T23:42:42.562Z,13.03
2018-02-03T23:45:11.204Z,11.90
2018-02-03T23:47:39.270Z,12.67
2018-02-03T23:50:07.275Z,13.53
2018-02-03T23:52:37.010Z,13.20
2018-02-03T23:55:04.981Z,12.73
2018-02-03T23:57:32.719Z,13.80
